createdAt,value
2022-11-23T00:01:29.995Z,99397.03
2022-11-23T00:03:58.337Z,99396.94
2022-11-23T00:06:25.378Z,99397.03
2022-11-23T00:08:52.783Z,99397.66
2022-11-23T00:11:21.257Z,99392.56
2022-11-23T00:13:48.110Z,99403.03
2022-11-23T00:16:17.612Z,99406.91
2022-11-23T00:18:44.748Z,99409.06
2022-11-23T00:21:16.253Z,99405.53
2022-11-23T00:23:43.421Z,99402.44
2022-11-23T00:26:10.195Z,99393.81
2022-11-23T00:28:39.711Z,99385.06
2022-11-23T00:31:20.531Z,99389.63
2022-11-23T00:33:54.034Z,99383.06
2022-11-23T00:36:21.996Z,99381.97
2022-11-23T00:38:49.667Z,99388.81
2022-11-23T00:41:19.457Z,99376.44
2022-11-23T00:43:46.061Z,99380.00
2022-11-23T00:46:15.254Z,99373.88
2022-11-23T00:48:46.817Z,99385.69
2022-11-23T00:51:16.419Z,99374.19
2022-11-23T00:53:43.246Z,99379.22
2022-11-23T00:56:10.217Z,99380.13
2022-11-23T00:58:40.038Z,99380.22
2022-11-23T01:01:14.959Z,99381.69
2022-11-23T01:03:46.974Z,99380.19
2022-11-23T01:06:18.687Z,99379.72
2022-11-23T01:08:53.182Z,99386.94
2022-11-23T01:11:20.755Z,99381.78
2022-11-23T01:13:47.786Z,99382.50
2022-11-23T01:16:24.049Z,99378.66
2022-11-23T01:18:58.821Z,99379.06
2022-11-23T01:21:26.451Z,99379.97
2022-11-23T01:23:53.375Z,99377.97
2022-11-23T01:26:19.899Z,99375.94
2022-11-23T01:28:46.464Z,99385.44
2022-11-23T01:31:17.863Z,99380.56
2022-11-23T01:33:44.886Z,99386.28
2022-11-23T01:36:16.899Z,99381.97
2022-11-23T01:38:43.688Z,99380.13
2022-11-23T01:41:14.285Z,99383.06
2022-11-23T01:43:41.117Z,99388.78
2022-11-23T01:46:08.107Z,99395.31
2022-11-23T01:48:38.209Z,99395.00
2022-11-23T01:51:39.464Z,99388.31
2022-11-23T01:54:17.104Z,99390.16
2022-11-23T01:56:48.286Z,99382.31
2022-11-23T01:59:16.986Z,99385.06
2022-11-23T02:01:43.925Z,99392.94
2022-11-23T02:04:14.716Z,99389.47
2022-11-23T02:06:42.929Z,99383.56
2022-11-23T02:09:09.369Z,99388.47
2022-11-23T02:11:35.790Z,99391.84
2022-11-23T02:14:02.226Z,99381.38
2022-11-23T02:16:29.155Z,99384.09
2022-11-23T02:18:55.650Z,99384.22
2022-11-23T02:21:22.857Z,99372.16
2022-11-23T02:24:17.739Z,99368.72
2022-11-23T02:26:44.314Z,99369.94
2022-11-23T02:29:18.415Z,99370.47
2022-11-23T02:31:44.829Z,99368.78
2022-11-23T02:34:11.603Z,99367.06
2022-11-23T02:36:43.966Z,99363.56
2022-11-23T02:39:32.687Z,99368.28
2022-11-23T02:42:00.486Z,99368.53
2022-11-23T02:44:49.141Z,99361.84
2022-11-23T02:47:15.948Z,99365.25
2022-11-23T02:49:45.790Z,99368.28
2022-11-23T02:52:13.346Z,99368.47
2022-11-23T02:54:39.762Z,99363.06
2022-11-23T02:57:06.414Z,99371.41
2022-11-23T02:59:34.106Z,99368.78
2022-11-23T03:02:02.647Z,99380.53
2022-11-23T03:04:28.955Z,99378.94
2022-11-23T03:06:55.747Z,99364.47
2022-11-23T03:09:22.701Z,99375.06
2022-11-23T03:11:49.317Z,99374.69
2022-11-23T03:14:16.166Z,99383.22
2022-11-23T03:16:42.566Z,99387.44
2022-11-23T03:19:08.980Z,99377.50
2022-11-23T03:21:35.387Z,99377.84
2022-11-23T03:24:01.802Z,99377.69
2022-11-23T03:26:28.216Z,99375.28
2022-11-23T03:28:54.635Z,99374.97
2022-11-23T03:31:21.458Z,99375.28
2022-11-23T03:33:47.967Z,99372.28
2022-11-23T03:36:14.393Z,99374.81
2022-11-23T03:38:40.966Z,99371.03
2022-11-23T03:41:07.342Z,99376.59
2022-11-23T03:43:33.743Z,99388.31
2022-11-23T03:46:00.177Z,99380.94
2022-11-23T03:48:26.646Z,99383.38
2022-11-23T03:50:53.091Z,99387.31
2022-11-23T03:53:19.548Z,99388.03
2022-11-23T03:55:47.039Z,99374.91
2022-11-23T03:58:13.584Z,99386.13
2022-11-23T04:00:40.097Z,99378.91
2022-11-23T04:03:06.907Z,99376.59
2022-11-23T04:05:33.329Z,99380.91
2022-11-23T04:07:59.811Z,99381.41
2022-11-23T04:10:26.493Z,99379.22
2022-11-23T04:12:53.399Z,99375.47
2022-11-23T04:15:20.741Z,99377.38
2022-11-23T04:17:47.325Z,99368.09
2022-11-23T04:20:14.078Z,99363.88
2022-11-23T04:22:40.806Z,99366.72
2022-11-23T04:25:07.557Z,99365.91
2022-11-23T04:27:33.974Z,99376.28
2022-11-23T04:30:00.429Z,99370.84
2022-11-23T04:32:26.844Z,99372.59
2022-11-23T04:34:53.241Z,99373.19
2022-11-23T04:37:19.669Z,99369.72
2022-11-23T04:39:46.070Z,99376.84
2022-11-23T04:42:12.714Z,99369.13
2022-11-23T04:44:39.278Z,99372.03
2022-11-23T04:47:05.740Z,99366.84
2022-11-23T04:49:32.549Z,99358.81
2022-11-23T04:51:59.273Z,99368.38
2022-11-23T04:54:25.692Z,99367.72
2022-11-23T04:56:54.137Z,99365.28
2022-11-23T04:59:20.989Z,99363.31
2022-11-23T05:01:47.374Z,99362.63
2022-11-23T05:04:17.766Z,99355.97
2022-11-23T05:06:45.000Z,99374.06
2022-11-23T05:09:12.069Z,99363.88
2022-11-23T05:11:38.604Z,99372.72
2022-11-23T05:14:05.195Z,99373.47
2022-11-23T05:16:31.635Z,99386.22
2022-11-23T05:18:58.067Z,99381.00
2022-11-23T05:21:24.617Z,99376.44
2022-11-23T05:23:51.005Z,99381.19
2022-11-23T05:26:17.554Z,99376.91
2022-11-23T05:28:44.000Z,99376.56
2022-11-23T05:31:10.614Z,99377.97
2022-11-23T05:33:37.180Z,99368.50
2022-11-23T05:36:03.902Z,99371.66
2022-11-23T05:38:30.319Z,99382.13
2022-11-23T05:40:56.925Z,99384.94
2022-11-23T05:43:23.670Z,99382.06
2022-11-23T05:45:50.142Z,99375.44
2022-11-23T05:48:16.748Z,99380.53
2022-11-23T05:50:43.200Z,99376.28
2022-11-23T05:53:10.166Z,99379.44
2022-11-23T05:55:36.687Z,99376.88
2022-11-23T05:58:03.809Z,99379.34
2022-11-23T06:00:30.352Z,99386.72
2022-11-23T06:03:03.595Z,99386.13
2022-11-23T06:05:30.764Z,99381.38
2022-11-23T06:07:57.325Z,99381.38
2022-11-23T06:10:23.885Z,99372.81
2022-11-23T06:12:50.385Z,99382.34
2022-11-23T06:15:17.029Z,99384.41
2022-11-23T06:17:43.532Z,99380.63
2022-11-23T06:20:10.242Z,99387.44
2022-11-23T06:22:36.649Z,99384.59
2022-11-23T06:25:03.158Z,99385.69
2022-11-23T06:27:29.603Z,99380.88
2022-11-23T06:29:56.117Z,99386.47
2022-11-23T06:32:22.515Z,99394.03
2022-11-23T06:34:48.938Z,99397.69
2022-11-23T06:37:15.477Z,99397.09
2022-11-23T06:39:41.949Z,99404.22
2022-11-23T06:42:36.622Z,99409.63
2022-11-23T06:44:54.811Z,99412.13
2022-11-23T06:47:26.053Z,99419.94
2022-11-23T06:49:53.222Z,99413.84
2022-11-23T06:52:19.935Z,99417.63
2022-11-23T06:54:47.372Z,99412.84
2022-11-23T06:57:13.902Z,99415.13
2022-11-23T06:59:44.574Z,99409.28
2022-11-23T07:02:12.172Z,99420.94
2022-11-23T07:04:38.706Z,99426.03
2022-11-23T07:07:05.218Z,99421.31
2022-11-23T07:09:32.021Z,99427.25
2022-11-23T07:11:58.652Z,99419.78
2022-11-23T07:14:25.104Z,99430.13
2022-11-23T07:16:51.783Z,99423.97
2022-11-23T07:19:18.193Z,99423.84
2022-11-23T07:21:45.406Z,99413.00
2022-11-23T07:24:11.984Z,99426.22
2022-11-23T07:26:38.389Z,99422.31
2022-11-23T07:29:04.828Z,99430.34
2022-11-23T07:31:31.517Z,99425.41
2022-11-23T07:33:57.932Z,99436.09
2022-11-23T07:36:24.719Z,99435.31
2022-11-23T07:38:51.135Z,99435.16
2022-11-23T07:41:17.554Z,99430.91
2022-11-23T07:43:44.171Z,99436.34
2022-11-23T07:46:10.887Z,99427.69
2022-11-23T07:48:37.399Z,99427.38
2022-11-23T07:51:03.948Z,99433.03
2022-11-23T07:53:30.386Z,99430.25
2022-11-23T07:55:58.619Z,99435.28
2022-11-23T07:58:25.633Z,99432.41
2022-11-23T08:00:52.125Z,99435.06
2022-11-23T08:03:27.637Z,99441.97
2022-11-23T08:05:54.566Z,99442.72
2022-11-23T08:08:21.194Z,99435.47
2022-11-23T08:10:53.034Z,99442.56
2022-11-23T08:13:21.624Z,99441.25
2022-11-23T08:15:53.758Z,99445.81
2022-11-23T08:18:21.229Z,99446.28
2022-11-23T08:20:47.842Z,99440.03
2022-11-23T08:23:14.263Z,99443.75
2022-11-23T08:25:40.960Z,99451.03
2022-11-23T08:28:07.691Z,99437.91
2022-11-23T08:30:34.871Z,99447.78
2022-11-23T08:33:08.669Z,99443.72
2022-11-23T08:35:40.015Z,99448.25
2022-11-23T08:38:08.148Z,99448.19
2022-11-23T08:40:35.575Z,99453.38
2022-11-23T08:43:02.220Z,99444.03
2022-11-23T08:45:29.258Z,99443.66
2022-11-23T08:48:00.861Z,99456.13
2022-11-23T08:50:29.202Z,99452.34
2022-11-23T08:52:59.179Z,99449.09
2022-11-23T08:55:26.805Z,99450.25
2022-11-23T08:58:00.433Z,99452.78
2022-11-23T09:00:27.778Z,99451.41
2022-11-23T09:02:54.815Z,99458.19
2022-11-23T09:05:21.750Z,99451.78
2022-11-23T09:07:48.410Z,99456.66
2022-11-23T09:10:18.807Z,99454.59
2022-11-23T09:12:46.907Z,99461.00
2022-11-23T09:15:13.537Z,99455.00
2022-11-23T09:17:40.001Z,99453.97
2022-11-23T09:20:07.579Z,99456.75
2022-11-23T09:22:34.361Z,99467.75
2022-11-23T09:25:01.125Z,99468.47
2022-11-23T09:27:27.633Z,99465.28
2022-11-23T09:29:54.073Z,99471.97
2022-11-23T09:32:20.534Z,99465.13
2022-11-23T09:34:47.081Z,99464.75
2022-11-23T09:37:14.132Z,99470.22
2022-11-23T09:39:40.667Z,99475.47
2022-11-23T09:42:45.399Z,99473.03
2022-11-23T09:45:19.845Z,99469.13
2022-11-23T09:47:54.570Z,99473.03
2022-11-23T09:50:28.236Z,99462.03
2022-11-23T09:52:55.208Z,99468.88
2022-11-23T09:55:36.882Z,99465.91
2022-11-23T09:58:13.181Z,99468.59
2022-11-23T10:00:57.299Z,99468.25
2022-11-23T10:03:23.862Z,99470.03
2022-11-23T10:06:06.884Z,99471.88
2022-11-23T10:09:01.252Z,99475.91
2022-11-23T10:11:55.737Z,99484.94
2022-11-23T10:14:45.795Z,99485.72
2022-11-23T10:17:29.135Z,99478.25
2022-11-23T10:20:24.698Z,99481.00
2022-11-23T10:23:02.413Z,99478.81
2022-11-23T10:25:38.962Z,99481.31
2022-11-23T10:28:15.823Z,99480.34
2022-11-23T10:30:43.159Z,99485.03
2022-11-23T10:33:22.440Z,99484.97
2022-11-23T10:35:48.975Z,99481.84
2022-11-23T10:38:19.699Z,99479.06
2022-11-23T10:41:08.038Z,99471.72
2022-11-23T10:44:01.641Z,99470.31
2022-11-23T10:46:38.435Z,99473.31
2022-11-23T10:49:20.402Z,99465.69
2022-11-23T10:52:05.600Z,99472.56
2022-11-23T10:54:47.175Z,99481.75
2022-11-23T10:57:32.139Z,99473.31
2022-11-23T11:00:02.610Z,99474.09
2022-11-23T11:02:39.700Z,99462.72
2022-11-23T11:08:19.941Z,99472.72
2022-11-23T11:10:51.976Z,99478.00
2022-11-23T11:13:41.709Z,99475.91
2022-11-23T11:16:21.129Z,99474.22
2022-11-23T11:18:47.912Z,99468.00
2022-11-23T11:21:19.878Z,99466.22
2022-11-23T11:23:54.776Z,99465.41
2022-11-23T11:26:23.804Z,99472.78
2022-11-23T11:28:55.642Z,99473.44
2022-11-23T11:31:30.099Z,99471.72
2022-11-23T11:34:18.246Z,99472.59
2022-11-23T11:37:12.333Z,99478.59
2022-11-23T11:39:47.755Z,99472.34
2022-11-23T11:42:19.911Z,99477.41
2022-11-23T11:44:49.889Z,99475.19
2022-11-23T11:47:26.974Z,99482.25
2022-11-23T11:49:59.586Z,99478.44
2022-11-23T11:52:33.111Z,99475.84
2022-11-23T11:55:11.635Z,99480.97
2022-11-23T11:57:55.972Z,99482.66
2022-11-23T12:00:22.702Z,99471.53
2022-11-23T12:02:52.979Z,99471.63
2022-11-23T12:05:22.671Z,99475.41
2022-11-23T12:08:07.360Z,99476.56
2022-11-23T12:10:43.215Z,99473.69
2022-11-23T12:13:22.067Z,99460.72
2022-11-23T12:16:03.606Z,99464.41
2022-11-23T12:19:05.405Z,99468.63
2022-11-23T12:22:01.813Z,99468.25
2022-11-23T12:24:53.679Z,99481.69
2022-11-23T12:27:52.958Z,99476.47
2022-11-23T12:30:31.013Z,99476.56
2022-11-23T12:33:18.475Z,99479.84
2022-11-23T12:36:26.579Z,99469.72
2022-11-23T12:39:30.777Z,99459.09
2022-11-23T12:42:11.957Z,99470.59
2022-11-23T12:44:57.237Z,99469.81
2022-11-23T12:48:15.649Z,99466.09
2022-11-23T12:50:52.662Z,99459.53
2022-11-23T12:53:40.770Z,99459.53
2022-11-23T12:56:13.475Z,99460.22
2022-11-23T12:58:43.691Z,99454.56
2022-11-23T13:01:26.375Z,99458.47
2022-11-23T13:04:17.552Z,99459.53
2022-11-23T13:10:02.564Z,99456.28
2022-11-23T13:13:15.685Z,99458.63
2022-11-23T13:15:45.554Z,99452.88
2022-11-23T13:18:44.230Z,99458.53
2022-11-23T13:21:14.092Z,99460.63
2022-11-23T13:23:40.581Z,99451.06
2022-11-23T13:26:24.497Z,99457.06
2022-11-23T13:28:53.049Z,99465.88
2022-11-23T13:31:21.164Z,99471.53
2022-11-23T13:33:49.846Z,99476.34
2022-11-23T13:37:10.468Z,99468.34
2022-11-23T13:39:55.997Z,99456.47
2022-11-23T13:42:23.198Z,99452.56
2022-11-23T13:45:21.736Z,99441.50
2022-11-23T13:48:19.436Z,99436.34
2022-11-23T13:50:59.876Z,99430.75
2022-11-23T13:53:35.549Z,99433.28
2022-11-23T13:56:40.066Z,99429.84
2022-11-23T13:59:27.678Z,99429.13
2022-11-23T14:02:17.561Z,99422.13
2022-11-23T14:04:46.836Z,99426.31
2022-11-23T14:07:16.711Z,99425.75
2022-11-23T14:09:54.465Z,99422.22
2022-11-23T14:12:44.751Z,99410.84
2022-11-23T14:15:19.815Z,99414.78
2022-11-23T14:18:07.683Z,99414.13
2022-11-23T14:20:55.498Z,99422.16
2022-11-23T14:23:43.396Z,99414.44
2022-11-23T14:26:33.948Z,99414.84
2022-11-23T14:29:21.977Z,99416.66
2022-11-23T14:32:07.219Z,99428.88
2022-11-23T14:35:12.238Z,99424.16
2022-11-23T14:38:13.882Z,99430.91
2022-11-23T14:41:11.147Z,99430.88
2022-11-23T14:43:41.635Z,99425.69
2022-11-23T14:46:15.398Z,99428.69
2022-11-23T14:48:41.866Z,99434.56
2022-11-23T14:51:12.864Z,99439.41
2022-11-23T14:54:00.945Z,99443.63
2022-11-23T14:56:35.701Z,99446.25
2022-11-23T14:59:09.363Z,99456.06
2022-11-23T15:01:37.114Z,99447.59
2022-11-23T15:04:10.366Z,99449.94
2022-11-23T15:06:45.783Z,99449.22
2022-11-23T15:09:12.457Z,99459.38
2022-11-23T15:11:39.016Z,99455.13
2022-11-23T15:14:18.828Z,99449.97
2022-11-23T15:16:45.390Z,99446.16
2022-11-23T15:19:29.407Z,99451.88
2022-11-23T15:21:56.946Z,99456.03
2022-11-23T15:24:25.930Z,99453.56
2022-11-23T15:26:53.432Z,99454.22
2022-11-23T15:29:36.600Z,99460.16
2022-11-23T15:32:35.783Z,99461.81
2022-11-23T15:35:10.275Z,99469.34
2022-11-23T15:37:44.140Z,99466.19
2022-11-23T15:40:18.659Z,99463.78
2022-11-23T15:42:48.052Z,99469.94
2022-11-23T15:45:37.266Z,99482.50
2022-11-23T15:48:14.867Z,99479.75
2022-11-23T15:50:56.542Z,99486.38
2022-11-23T15:53:32.734Z,99483.47
2022-11-23T15:56:06.917Z,99494.63
2022-11-23T15:58:35.204Z,99493.31
2022-11-23T16:01:13.387Z,99494.91
2022-11-23T16:03:39.841Z,99493.13
2022-11-23T16:06:15.700Z,99498.19
2022-11-23T16:08:42.119Z,99493.31
2022-11-23T16:11:29.741Z,99528.19
2022-11-23T16:14:17.098Z,99530.34
2022-11-23T16:16:46.254Z,99534.84
2022-11-23T16:19:27.113Z,99531.69
2022-11-23T16:22:01.952Z,99539.28
2022-11-23T16:24:31.548Z,99544.25
2022-11-23T16:26:58.403Z,99548.56
2022-11-23T16:29:28.327Z,99542.47
2022-11-23T16:32:02.862Z,99552.88
2022-11-23T16:34:29.516Z,99560.50
2022-11-23T16:36:56.452Z,99561.28
2022-11-23T16:39:24.106Z,99569.25
2022-11-23T16:41:51.573Z,99557.03
2022-11-23T16:44:18.855Z,99567.28
2022-11-23T16:46:47.520Z,99572.16
2022-11-23T16:49:17.771Z,99583.47
2022-11-23T16:51:45.542Z,99577.25
2022-11-23T16:54:14.037Z,99582.25
2022-11-23T16:56:41.938Z,99587.69
2022-11-23T16:59:16.609Z,99582.25
2022-11-23T17:01:45.844Z,99589.53
2022-11-23T17:04:15.262Z,99584.66
2022-11-23T17:06:43.097Z,99580.50
2022-11-23T17:09:10.428Z,99575.19
2022-11-23T17:11:42.028Z,99576.88
2022-11-23T17:14:18.477Z,99583.16
2022-11-23T17:16:45.724Z,99578.84
2022-11-23T17:19:17.336Z,99574.50
2022-11-23T17:21:44.969Z,99572.78
2022-11-23T17:24:12.754Z,99589.72
2022-11-23T17:26:45.268Z,99578.66
2022-11-23T17:29:19.650Z,99578.84
2022-11-23T17:31:47.411Z,99572.56
2022-11-23T17:34:14.473Z,99574.06
2022-11-23T17:36:42.763Z,99576.03
2022-11-23T17:39:15.620Z,99564.94
2022-11-23T17:41:42.019Z,99559.69
2022-11-23T17:44:09.326Z,99550.09
2022-11-23T17:46:35.916Z,99557.72
2022-11-23T17:49:02.547Z,99560.63
2022-11-23T17:51:29.526Z,99557.03
2022-11-23T17:53:56.101Z,99554.97
2022-11-23T17:56:25.780Z,99549.63
2022-11-23T17:58:52.798Z,99563.72
2022-11-23T18:01:21.344Z,99559.84
2022-11-23T18:03:48.039Z,99559.75
2022-11-23T18:06:15.498Z,99566.63
2022-11-23T18:08:43.675Z,99573.38
2022-11-23T18:11:10.777Z,99579.59
2022-11-23T18:13:38.226Z,99588.03
2022-11-23T18:16:05.924Z,99588.69
2022-11-23T18:18:33.159Z,99605.16
2022-11-23T18:20:59.753Z,99604.22
2022-11-23T18:23:27.320Z,99605.00
2022-11-23T18:26:13.328Z,99603.28
2022-11-23T18:28:39.807Z,99604.22
2022-11-23T18:31:06.547Z,99611.19
2022-11-23T18:33:33.123Z,99609.06
2022-11-23T18:36:05.133Z,99611.06
2022-11-23T18:38:33.281Z,99613.47
2022-11-23T18:41:00.234Z,99616.94
2022-11-23T18:43:26.898Z,99616.09
2022-11-23T18:45:53.739Z,99626.72
2022-11-23T18:48:20.289Z,99633.06
2022-11-23T18:50:46.832Z,99635.81
2022-11-23T18:53:13.266Z,99632.69
2022-11-23T18:55:39.999Z,99644.72
2022-11-23T18:58:06.989Z,99652.88
2022-11-23T19:00:33.666Z,99652.13
2022-11-23T19:03:02.132Z,99660.38
2022-11-23T19:05:30.635Z,99661.31
2022-11-23T19:08:04.209Z,99661.91
2022-11-23T19:10:37.540Z,99661.31
2022-11-23T19:13:05.928Z,99661.91
2022-11-23T19:15:33.297Z,99660.50
2022-11-23T19:18:00.002Z,99656.19
2022-11-23T19:20:26.483Z,99648.34
2022-11-23T19:22:53.197Z,99658.38
2022-11-23T19:25:19.780Z,99658.38
2022-11-23T19:27:48.777Z,99652.69
2022-11-23T19:30:15.608Z,99660.63
2022-11-23T19:32:42.058Z,99660.91
2022-11-23T19:35:08.923Z,99665.19
2022-11-23T19:37:36.665Z,99658.03
2022-11-23T19:40:03.630Z,99678.13
2022-11-23T19:42:30.450Z,99669.59
2022-11-23T19:44:56.908Z,99676.34
2022-11-23T19:47:23.426Z,99664.47
2022-11-23T19:49:49.863Z,99669.22
2022-11-23T19:52:16.317Z,99669.91
2022-11-23T19:54:42.863Z,99676.59
2022-11-23T19:57:09.387Z,99664.13
2022-11-23T19:59:36.186Z,99670.41
2022-11-23T20:02:02.766Z,99667.94
2022-11-23T20:04:29.719Z,99668.72
2022-11-23T20:06:56.446Z,99675.16
2022-11-23T20:09:23.947Z,99679.91
2022-11-23T20:11:51.464Z,99677.53
2022-11-23T20:14:18.422Z,99681.94
2022-11-23T20:16:44.901Z,99675.84
2022-11-23T20:19:11.683Z,99676.88
2022-11-23T20:21:38.471Z,99675.47
2022-11-23T20:24:07.945Z,99667.00
2022-11-23T20:26:36.347Z,99681.94
2022-11-23T20:29:03.850Z,99684.31
2022-11-23T20:31:31.911Z,99678.06
2022-11-23T20:33:59.426Z,99683.81
2022-11-23T20:36:31.593Z,99680.09
2022-11-23T20:39:00.942Z,99683.91
2022-11-23T20:41:30.359Z,99682.13
2022-11-23T20:43:59.298Z,99679.03
2022-11-23T20:46:53.654Z,99682.78
2022-11-23T20:49:14.024Z,99691.91
2022-11-23T20:51:40.506Z,99686.06
2022-11-23T20:54:06.980Z,99695.47
2022-11-23T20:56:33.435Z,99692.47
2022-11-23T20:59:00.293Z,99696.31
2022-11-23T21:01:27.857Z,99693.41
2022-11-23T21:03:58.209Z,99699.19
2022-11-23T21:06:25.599Z,99697.81
2022-11-23T21:08:52.812Z,99699.69
2022-11-23T21:11:39.484Z,99698.41
2022-11-23T21:14:16.927Z,99700.53
2022-11-23T21:16:46.202Z,99698.47
2022-11-23T21:19:14.167Z,99699.41
2022-11-23T21:21:41.011Z,99695.84
2022-11-23T21:24:07.862Z,99707.94
2022-11-23T21:26:34.695Z,99718.00
2022-11-23T21:29:01.519Z,99713.59
2022-11-23T21:31:29.946Z,99706.34
2022-11-23T21:34:04.929Z,99710.13
2022-11-23T21:36:36.234Z,99715.00
2022-11-23T21:39:05.393Z,99713.47
2022-11-23T21:41:31.871Z,99707.09
2022-11-23T21:43:58.877Z,99717.09
2022-11-23T21:46:25.922Z,99700.50
2022-11-23T21:48:54.550Z,99704.56
2022-11-23T21:51:22.094Z,99711.44
2022-11-23T21:53:48.987Z,99708.06
2022-11-23T21:56:17.268Z,99712.09
2022-11-23T21:58:43.967Z,99710.22
2022-11-23T22:01:13.453Z,99715.19
2022-11-23T22:03:42.150Z,99714.25
2022-11-23T22:06:10.047Z,99721.94
2022-11-23T22:08:50.185Z,99712.56
2022-11-23T22:11:23.041Z,99709.28
2022-11-23T22:13:54.746Z,99709.06
2022-11-23T22:16:24.151Z,99713.13
2022-11-23T22:18:55.604Z,99720.44
2022-11-23T22:21:24.960Z,99713.69
2022-11-23T22:23:51.641Z,99713.13
2022-11-23T22:26:19.643Z,99715.16
2022-11-23T22:28:50.762Z,99718.09
2022-11-23T22:31:20.631Z,99709.66
2022-11-23T22:33:47.670Z,99718.81
2022-11-23T22:36:19.168Z,99713.56
2022-11-23T22:38:46.194Z,99719.06
2022-11-23T22:41:16.005Z,99723.78
2022-11-23T22:43:43.087Z,99728.41
2022-11-23T22:46:19.897Z,99727.56
2022-11-23T22:48:48.407Z,99724.88
2022-11-23T22:51:18.059Z,99747.88
2022-11-23T22:53:45.138Z,99738.78
2022-11-23T22:56:16.702Z,99739.38
2022-11-23T22:58:44.553Z,99737.00
2022-11-23T23:01:13.667Z,99742.91
2022-11-23T23:03:40.991Z,99747.09
2022-11-23T23:06:14.380Z,99745.53
2022-11-23T23:08:40.791Z,99744.13
2022-11-23T23:11:07.694Z,99742.59
2022-11-23T23:13:35.276Z,99739.13
2022-11-23T23:16:12.950Z,99740.34
2022-11-23T23:18:43.272Z,99747.50
2022-11-23T23:21:12.638Z,99747.13
2022-11-23T23:23:40.936Z,99741.47
2022-11-23T23:26:07.753Z,99735.47
2022-11-23T23:28:34.443Z,99741.09
2022-11-23T23:31:04.998Z,99734.81
2022-11-23T23:33:33.236Z,99743.75
2022-11-23T23:36:10.048Z,99740.84
2022-11-23T23:38:37.273Z,99743.28
2022-11-23T23:41:05.619Z,99738.97
2022-11-23T23:43:32.246Z,99735.66
2022-11-23T23:46:00.939Z,99743.28
2022-11-23T23:48:33.575Z,99746.69
2022-11-23T23:51:11.612Z,99743.13
2022-11-23T23:53:39.034Z,99737.38
2022-11-23T23:56:08.278Z,99734.47
2022-11-23T23:58:35.425Z,99741.25
